sensor_id;sensor_type;location;lat;lon;timestamp;P1;durP1;ratioP1;P2;durP2;ratioP2
52642;SDS011;38531;53.296;6.614;2023-08-06T00:00:23;2.42;;;1.30;;
52642;SDS011;38531;53.296;6.614;2023-08-06T00:02:49;1.95;;;1.40;;
52642;SDS011;38531;53.296;6.614;2023-08-06T00:05:15;2.20;;;1.27;;
52642;SDS011;38531;53.296;6.614;2023-08-06T00:07:46;5.00;;;2.45;;
52642;SDS011;38531;53.296;6.614;2023-08-06T00:10:13;2.05;;;1.10;;
52642;SDS011;38531;53.296;6.614;2023-08-06T00:12:39;2.28;;;1.40;;
52642;SDS011;38531;53.296;6.614;2023-08-06T00:15:05;2.05;;;1.38;;
52642;SDS011;38531;53.296;6.614;2023-08-06T00:17:31;3.72;;;1.48;;
52642;SDS011;38531;53.296;6.614;2023-08-06T00:19:57;2.80;;;1.23;;
52642;SDS011;38531;53.296;6.614;2023-08-06T00:22:22;2.40;;;1.38;;
52642;SDS011;38531;53.296;6.614;2023-08-06T00:24:49;2.13;;;1.27;;
52642;SDS011;38531;53.296;6.614;2023-08-06T00:27:14;3.20;;;1.27;;
52642;SDS011;38531;53.296;6.614;2023-08-06T00:29:40;2.28;;;1.73;;
52642;SDS011;38531;53.296;6.614;2023-08-06T00:32:06;3.05;;;1.00;;
52642;SDS011;38531;53.296;6.614;2023-08-06T00:34:31;2.63;;;1.10;;
52642;SDS011;38531;53.296;6.614;2023-08-06T00:36:57;1.67;;;1.20;;
52642;SDS011;38531;53.296;6.614;2023-08-06T00:39:23;2.70;;;1.40;;
52642;SDS011;38531;53.296;6.614;2023-08-06T00:41:48;1.90;;;1.27;;
52642;SDS011;38531;53.296;6.614;2023-08-06T00:44:14;1.70;;;1.10;;
52642;SDS011;38531;53.296;6.614;2023-08-06T00:46:40;2.53;;;1.10;;
52642;SDS011;38531;53.296;6.614;2023-08-06T00:49:05;2.05;;;1.10;;
52642;SDS011;38531;53.296;6.614;2023-08-06T00:51:31;1.88;;;1.27;;
52642;SDS011;38531;53.296;6.614;2023-08-06T00:53:57;3.33;;;1.35;;
52642;SDS011;38531;53.296;6.614;2023-08-06T00:56:23;2.22;;;1.40;;
52642;SDS011;38531;53.296;6.614;2023-08-06T00:58:50;1.77;;;0.98;;
52642;SDS011;38531;53.296;6.614;2023-08-06T01:01:16;1.85;;;1.00;;
52642;SDS011;38531;53.296;6.614;2023-08-06T01:03:42;2.38;;;1.00;;
52642;SDS011;38531;53.296;6.614;2023-08-06T01:06:07;1.50;;;1.10;;
52642;SDS011;38531;53.296;6.614;2023-08-06T01:13:47;2.00;;;1.08;;
52642;SDS011;38531;53.296;6.614;2023-08-06T01:16:17;1.50;;;1.08;;
52642;SDS011;38531;53.296;6.614;2023-08-06T01:18:46;2.20;;;1.70;;
52642;SDS011;38531;53.296;6.614;2023-08-06T01:21:14;2.05;;;1.40;;
52642;SDS011;38531;53.296;6.614;2023-08-06T01:23:41;2.40;;;1.33;;
52642;SDS011;38531;53.296;6.614;2023-08-06T01:31:30;6.63;;;2.83;;
52642;SDS011;38531;53.296;6.614;2023-08-06T01:33:59;4.45;;;1.55;;
52642;SDS011;38531;53.296;6.614;2023-08-06T01:36:26;3.28;;;1.52;;
52642;SDS011;38531;53.296;6.614;2023-08-06T01:38:53;2.80;;;1.67;;
52642;SDS011;38531;53.296;6.614;2023-08-06T01:41:19;4.38;;;1.95;;
52642;SDS011;38531;53.296;6.614;2023-08-06T01:43:45;2.55;;;1.70;;
52642;SDS011;38531;53.296;6.614;2023-08-06T01:46:11;2.45;;;1.67;;
52642;SDS011;38531;53.296;6.614;2023-08-06T01:48:36;2.60;;;1.85;;
52642;SDS011;38531;53.296;6.614;2023-08-06T01:51:05;3.20;;;2.10;;
52642;SDS011;38531;53.296;6.614;2023-08-06T01:53:32;2.72;;;1.88;;
52642;SDS011;38531;53.296;6.614;2023-08-06T01:55:57;5.18;;;2.38;;
52642;SDS011;38531;53.296;6.614;2023-08-06T01:58:23;2.63;;;1.88;;
52642;SDS011;38531;53.296;6.614;2023-08-06T02:00:49;2.50;;;1.70;;
52642;SDS011;38531;53.296;6.614;2023-08-06T02:03:15;2.22;;;1.60;;
52642;SDS011;38531;53.296;6.614;2023-08-06T02:05:41;2.92;;;2.05;;
52642;SDS011;38531;53.296;6.614;2023-08-06T02:08:07;3.78;;;1.65;;
52642;SDS011;38531;53.296;6.614;2023-08-06T02:10:32;3.30;;;1.90;;
52642;SDS011;38531;53.296;6.614;2023-08-06T02:12:58;5.10;;;2.70;;
52642;SDS011;38531;53.296;6.614;2023-08-06T02:15:24;2.63;;;1.98;;
52642;SDS011;38531;53.296;6.614;2023-08-06T02:17:49;3.40;;;2.35;;
52642;SDS011;38531;53.296;6.614;2023-08-06T02:20:15;3.05;;;1.92;;
52642;SDS011;38531;53.296;6.614;2023-08-06T02:22:41;3.97;;;2.22;;
52642;SDS011;38531;53.296;6.614;2023-08-06T02:25:07;2.90;;;1.65;;
52642;SDS011;38531;53.296;6.614;2023-08-06T02:27:32;3.60;;;2.40;;
52642;SDS011;38531;53.296;6.614;2023-08-06T02:29:58;3.03;;;2.15;;
52642;SDS011;38531;53.296;6.614;2023-08-06T02:32:24;3.13;;;1.92;;
52642;SDS011;38531;53.296;6.614;2023-08-06T02:34:49;2.80;;;2.05;;
52642;SDS011;38531;53.296;6.614;2023-08-06T02:37:15;4.63;;;1.85;;
52642;SDS011;38531;53.296;6.614;2023-08-06T02:47:03;3.72;;;1.92;;
52642;SDS011;38531;53.296;6.614;2023-08-06T02:49:29;2.55;;;1.67;;
52642;SDS011;38531;53.296;6.614;2023-08-06T02:51:55;2.42;;;1.52;;
52642;SDS011;38531;53.296;6.614;2023-08-06T03:01:05;4.70;;;2.72;;
52642;SDS011;38531;53.296;6.614;2023-08-06T03:03:32;2.92;;;2.20;;
52642;SDS011;38531;53.296;6.614;2023-08-06T03:05:58;3.45;;;1.98;;
52642;SDS011;38531;53.296;6.614;2023-08-06T03:08:24;4.65;;;2.13;;
52642;SDS011;38531;53.296;6.614;2023-08-06T03:10:51;2.85;;;1.98;;
52642;SDS011;38531;53.296;6.614;2023-08-06T03:13:20;2.30;;;1.73;;
52642;SDS011;38531;53.296;6.614;2023-08-06T03:15:55;3.80;;;1.88;;
52642;SDS011;38531;53.296;6.614;2023-08-06T03:18:22;4.55;;;2.55;;
52642;SDS011;38531;53.296;6.614;2023-08-06T03:20:48;4.32;;;2.08;;
52642;SDS011;38531;53.296;6.614;2023-08-06T03:23:14;2.63;;;1.95;;
52642;SDS011;38531;53.296;6.614;2023-08-06T03:25:40;3.85;;;2.08;;
52642;SDS011;38531;53.296;6.614;2023-08-06T03:28:05;2.70;;;1.75;;
52642;SDS011;38531;53.296;6.614;2023-08-06T03:30:31;2.90;;;1.92;;
52642;SDS011;38531;53.296;6.614;2023-08-06T03:32:58;3.85;;;2.30;;
52642;SDS011;38531;53.296;6.614;2023-08-06T03:35:24;3.85;;;2.13;;
52642;SDS011;38531;53.296;6.614;2023-08-06T03:37:49;3.05;;;2.08;;
52642;SDS011;38531;53.296;6.614;2023-08-06T03:43:56;3.72;;;2.15;;
52642;SDS011;38531;53.296;6.614;2023-08-06T03:46:22;3.53;;;2.42;;
52642;SDS011;38531;53.296;6.614;2023-08-06T03:48:47;4.60;;;1.95;;
52642;SDS011;38531;53.296;6.614;2023-08-06T03:51:13;3.58;;;2.35;;
52642;SDS011;38531;53.296;6.614;2023-08-06T03:53:39;2.58;;;1.50;;
52642;SDS011;38531;53.296;6.614;2023-08-06T03:56:04;3.00;;;2.00;;
52642;SDS011;38531;53.296;6.614;2023-08-06T03:58:30;3.25;;;2.05;;
52642;SDS011;38531;53.296;6.614;2023-08-06T04:00:59;3.13;;;1.73;;
52642;SDS011;38531;53.296;6.614;2023-08-06T04:03:26;5.32;;;2.17;;
52642;SDS011;38531;53.296;6.614;2023-08-06T04:05:52;2.65;;;1.73;;
52642;SDS011;38531;53.296;6.614;2023-08-06T04:08:17;3.22;;;2.20;;
52642;SDS011;38531;53.296;6.614;2023-08-06T04:10:43;2.08;;;1.40;;
52642;SDS011;38531;53.296;6.614;2023-08-06T04:13:09;3.20;;;1.92;;
52642;SDS011;38531;53.296;6.614;2023-08-06T04:15:34;3.08;;;1.65;;
52642;SDS011;38531;53.296;6.614;2023-08-06T04:18:00;2.67;;;2.20;;
52642;SDS011;38531;53.296;6.614;2023-08-06T04:20:26;2.97;;;2.05;;
52642;SDS011;38531;53.296;6.614;2023-08-06T04:22:54;3.67;;;2.40;;
52642;SDS011;38531;53.296;6.614;2023-08-06T04:25:20;5.13;;;2.70;;
52642;SDS011;38531;53.296;6.614;2023-08-06T04:27:49;2.10;;;1.63;;
52642;SDS011;38531;53.296;6.614;2023-08-06T04:30:14;2.10;;;1.73;;
52642;SDS011;38531;53.296;6.614;2023-08-06T04:32:40;3.35;;;2.20;;
52642;SDS011;38531;53.296;6.614;2023-08-06T04:35:06;3.35;;;2.22;;
52642;SDS011;38531;53.296;6.614;2023-08-06T04:37:32;2.58;;;1.83;;
52642;SDS011;38531;53.296;6.614;2023-08-06T04:43:39;2.50;;;2.08;;
52642;SDS011;38531;53.296;6.614;2023-08-06T04:46:05;4.35;;;1.92;;
52642;SDS011;38531;53.296;6.614;2023-08-06T04:48:31;3.47;;;1.55;;
52642;SDS011;38531;53.296;6.614;2023-08-06T04:50:57;3.95;;;1.67;;
52642;SDS011;38531;53.296;6.614;2023-08-06T04:53:22;2.83;;;1.73;;
52642;SDS011;38531;53.296;6.614;2023-08-06T04:55:48;2.88;;;1.92;;
52642;SDS011;38531;53.296;6.614;2023-08-06T04:58:14;2.40;;;1.63;;
52642;SDS011;38531;53.296;6.614;2023-08-06T05:00:40;3.33;;;1.90;;
52642;SDS011;38531;53.296;6.614;2023-08-06T05:03:06;2.75;;;1.48;;
52642;SDS011;38531;53.296;6.614;2023-08-06T05:05:32;3.35;;;2.15;;
52642;SDS011;38531;53.296;6.614;2023-08-06T05:07:58;2.15;;;1.33;;
52642;SDS011;38531;53.296;6.614;2023-08-06T05:10:27;2.97;;;1.67;;
52642;SDS011;38531;53.296;6.614;2023-08-06T05:12:53;4.07;;;1.52;;
52642;SDS011;38531;53.296;6.614;2023-08-06T05:15:19;2.50;;;1.52;;
52642;SDS011;38531;53.296;6.614;2023-08-06T05:17:45;1.77;;;1.45;;
52642;SDS011;38531;53.296;6.614;2023-08-06T05:20:10;2.20;;;1.30;;
52642;SDS011;38531;53.296;6.614;2023-08-06T05:22:36;2.42;;;1.60;;
52642;SDS011;38531;53.296;6.614;2023-08-06T05:25:02;3.67;;;1.40;;
52642;SDS011;38531;53.296;6.614;2023-08-06T05:27:28;2.08;;;1.38;;
52642;SDS011;38531;53.296;6.614;2023-08-06T05:29:57;2.40;;;1.48;;
52642;SDS011;38531;53.296;6.614;2023-08-06T05:32:23;3.70;;;1.45;;
52642;SDS011;38531;53.296;6.614;2023-08-06T05:34:48;2.92;;;1.75;;
52642;SDS011;38531;53.296;6.614;2023-08-06T05:37:14;4.28;;;1.73;;
52642;SDS011;38531;53.296;6.614;2023-08-06T05:39:40;2.38;;;1.42;;
52642;SDS011;38531;53.296;6.614;2023-08-06T05:42:05;2.58;;;1.50;;
52642;SDS011;38531;53.296;6.614;2023-08-06T05:44:31;2.47;;;1.20;;
52642;SDS011;38531;53.296;6.614;2023-08-06T05:46:57;3.80;;;1.33;;
52642;SDS011;38531;53.296;6.614;2023-08-06T05:49:23;7.53;;;2.25;;
52642;SDS011;38531;53.296;6.614;2023-08-06T05:51:48;2.92;;;1.50;;
52642;SDS011;38531;53.296;6.614;2023-08-06T05:54:14;3.40;;;1.73;;
52642;SDS011;38531;53.296;6.614;2023-08-06T05:56:40;1.70;;;1.23;;
52642;SDS011;38531;53.296;6.614;2023-08-06T05:59:08;3.08;;;1.15;;
52642;SDS011;38531;53.296;6.614;2023-08-06T06:01:34;3.15;;;1.88;;
52642;SDS011;38531;53.296;6.614;2023-08-06T06:04:00;4.15;;;2.00;;
52642;SDS011;38531;53.296;6.614;2023-08-06T06:06:25;2.42;;;1.35;;
52642;SDS011;38531;53.296;6.614;2023-08-06T06:08:51;2.60;;;1.25;;
52642;SDS011;38531;53.296;6.614;2023-08-06T06:11:17;1.70;;;1.20;;
52642;SDS011;38531;53.296;6.614;2023-08-06T06:13:46;1.83;;;1.40;;
52642;SDS011;38531;53.296;6.614;2023-08-06T06:16:16;2.88;;;1.50;;
52642;SDS011;38531;53.296;6.614;2023-08-06T06:18:42;2.25;;;1.60;;
52642;SDS011;38531;53.296;6.614;2023-08-06T06:21:07;1.98;;;1.58;;
52642;SDS011;38531;53.296;6.614;2023-08-06T06:23:33;2.00;;;1.35;;
52642;SDS011;38531;53.296;6.614;2023-08-06T06:25:59;3.00;;;1.60;;
52642;SDS011;38531;53.296;6.614;2023-08-06T06:28:24;2.25;;;1.33;;
52642;SDS011;38531;53.296;6.614;2023-08-06T06:30:50;3.17;;;1.45;;
52642;SDS011;38531;53.296;6.614;2023-08-06T06:33:16;2.63;;;1.35;;
52642;SDS011;38531;53.296;6.614;2023-08-06T06:35:42;2.55;;;1.45;;
52642;SDS011;38531;53.296;6.614;2023-08-06T06:38:08;4.65;;;1.80;;
52642;SDS011;38531;53.296;6.614;2023-08-06T06:40:34;1.98;;;1.38;;
52642;SDS011;38531;53.296;6.614;2023-08-06T06:42:59;1.70;;;1.20;;
52642;SDS011;38531;53.296;6.614;2023-08-06T06:45:25;2.60;;;1.50;;
52642;SDS011;38531;53.296;6.614;2023-08-06T06:47:51;2.03;;;1.15;;
52642;SDS011;38531;53.296;6.614;2023-08-06T06:50:16;3.40;;;1.42;;
52642;SDS011;38531;53.296;6.614;2023-08-06T06:52:42;1.42;;;1.10;;
52642;SDS011;38531;53.296;6.614;2023-08-06T06:55:08;2.15;;;1.40;;
52642;SDS011;38531;53.296;6.614;2023-08-06T06:57:33;2.38;;;1.52;;
52642;SDS011;38531;53.296;6.614;2023-08-06T06:59:59;1.77;;;1.20;;
52642;SDS011;38531;53.296;6.614;2023-08-06T07:02:25;1.88;;;1.10;;
52642;SDS011;38531;53.296;6.614;2023-08-06T07:04:50;3.63;;;1.50;;
52642;SDS011;38531;53.296;6.614;2023-08-06T07:07:17;2.08;;;1.20;;
52642;SDS011;38531;53.296;6.614;2023-08-06T07:09:43;1.63;;;1.00;;
52642;SDS011;38531;53.296;6.614;2023-08-06T07:12:09;2.15;;;1.27;;
52642;SDS011;38531;53.296;6.614;2023-08-06T07:14:35;2.10;;;1.40;;
52642;SDS011;38531;53.296;6.614;2023-08-06T07:17:01;1.30;;;0.90;;
52642;SDS011;38531;53.296;6.614;2023-08-06T07:19:26;2.05;;;1.52;;
52642;SDS011;38531;53.296;6.614;2023-08-06T07:21:53;2.50;;;1.58;;
52642;SDS011;38531;53.296;6.614;2023-08-06T07:24:18;2.40;;;1.42;;
52642;SDS011;38531;53.296;6.614;2023-08-06T07:26:44;3.92;;;2.08;;
52642;SDS011;38531;53.296;6.614;2023-08-06T07:29:10;2.65;;;1.80;;
52642;SDS011;38531;53.296;6.614;2023-08-06T07:31:36;3.90;;;1.83;;
52642;SDS011;38531;53.296;6.614;2023-08-06T07:34:01;2.97;;;2.08;;
52642;SDS011;38531;53.296;6.614;2023-08-06T07:36:27;5.05;;;2.30;;
52642;SDS011;38531;53.296;6.614;2023-08-06T07:38:53;2.58;;;1.10;;
52642;SDS011;38531;53.296;6.614;2023-08-06T07:41:24;3.53;;;1.73;;
52642;SDS011;38531;53.296;6.614;2023-08-06T07:43:50;3.75;;;1.75;;
52642;SDS011;38531;53.296;6.614;2023-08-06T07:46:16;2.60;;;1.75;;
52642;SDS011;38531;53.296;6.614;2023-08-06T07:48:41;2.05;;;1.20;;
52642;SDS011;38531;53.296;6.614;2023-08-06T07:51:07;2.67;;;1.50;;
52642;SDS011;38531;53.296;6.614;2023-08-06T07:53:33;1.92;;;1.10;;
52642;SDS011;38531;53.296;6.614;2023-08-06T07:55:58;2.03;;;1.52;;
52642;SDS011;38531;53.296;6.614;2023-08-06T07:58:27;2.15;;;1.13;;
52642;SDS011;38531;53.296;6.614;2023-08-06T08:00:54;2.78;;;1.88;;
52642;SDS011;38531;53.296;6.614;2023-08-06T08:03:20;1.92;;;1.33;;
52642;SDS011;38531;53.296;6.614;2023-08-06T08:05:46;2.30;;;1.48;;
52642;SDS011;38531;53.296;6.614;2023-08-06T08:08:12;1.45;;;1.30;;
52642;SDS011;38531;53.296;6.614;2023-08-06T08:10:37;2.22;;;1.38;;
52642;SDS011;38531;53.296;6.614;2023-08-06T08:13:03;1.52;;;1.20;;
52642;SDS011;38531;53.296;6.614;2023-08-06T08:15:30;3.45;;;1.50;;
52642;SDS011;38531;53.296;6.614;2023-08-06T08:17:56;1.60;;;1.30;;
52642;SDS011;38531;53.296;6.614;2023-08-06T08:20:23;1.65;;;1.10;;
52642;SDS011;38531;53.296;6.614;2023-08-06T08:22:49;2.70;;;1.20;;
52642;SDS011;38531;53.296;6.614;2023-08-06T08:25:15;1.48;;;0.90;;
52642;SDS011;38531;53.296;6.614;2023-08-06T08:27:41;1.83;;;0.90;;
52642;SDS011;38531;53.296;6.614;2023-08-06T08:30:07;1.45;;;0.80;;
52642;SDS011;38531;53.296;6.614;2023-08-06T08:32:33;1.45;;;0.65;;
52642;SDS011;38531;53.296;6.614;2023-08-06T08:34:59;3.05;;;0.90;;
52642;SDS011;38531;53.296;6.614;2023-08-06T08:37:25;1.50;;;0.80;;
52642;SDS011;38531;53.296;6.614;2023-08-06T08:39:50;1.55;;;1.02;;
52642;SDS011;38531;53.296;6.614;2023-08-06T08:42:17;0.95;;;0.85;;
52642;SDS011;38531;53.296;6.614;2023-08-06T08:44:43;1.98;;;0.90;;
52642;SDS011;38531;53.296;6.614;2023-08-06T08:47:10;1.30;;;0.85;;
52642;SDS011;38531;53.296;6.614;2023-08-06T08:49:37;2.00;;;0.85;;
52642;SDS011;38531;53.296;6.614;2023-08-06T08:52:07;2.60;;;0.70;;
52642;SDS011;38531;53.296;6.614;2023-08-06T08:54:38;0.95;;;0.70;;
52642;SDS011;38531;53.296;6.614;2023-08-06T08:57:05;1.13;;;0.60;;
52642;SDS011;38531;53.296;6.614;2023-08-06T08:59:32;1.65;;;0.60;;
52642;SDS011;38531;53.296;6.614;2023-08-06T09:01:59;1.85;;;0.65;;
52642;SDS011;38531;53.296;6.614;2023-08-06T09:04:26;1.42;;;0.60;;
52642;SDS011;38531;53.296;6.614;2023-08-06T09:06:56;1.15;;;0.60;;
52642;SDS011;38531;53.296;6.614;2023-08-06T09:09:25;4.03;;;0.75;;
52642;SDS011;38531;53.296;6.614;2023-08-06T09:11:57;1.40;;;0.50;;
52642;SDS011;38531;53.296;6.614;2023-08-06T09:14:33;1.10;;;0.70;;
52642;SDS011;38531;53.296;6.614;2023-08-06T09:16:59;1.05;;;0.60;;
52642;SDS011;38531;53.296;6.614;2023-08-06T09:19:26;0.93;;;0.52;;
52642;SDS011;38531;53.296;6.614;2023-08-06T09:21:53;1.48;;;0.60;;
52642;SDS011;38531;53.296;6.614;2023-08-06T09:24:20;1.17;;;0.52;;
52642;SDS011;38531;53.296;6.614;2023-08-06T09:26:47;0.88;;;0.50;;
52642;SDS011;38531;53.296;6.614;2023-08-06T09:29:12;0.60;;;0.40;;
52642;SDS011;38531;53.296;6.614;2023-08-06T09:31:46;0.85;;;0.50;;
52642;SDS011;38531;53.296;6.614;2023-08-06T09:34:21;2.00;;;0.60;;
52642;SDS011;38531;53.296;6.614;2023-08-06T09:36:51;0.90;;;0.60;;
52642;SDS011;38531;53.296;6.614;2023-08-06T09:39:26;0.95;;;0.60;;
52642;SDS011;38531;53.296;6.614;2023-08-06T09:41:57;1.90;;;0.60;;
52642;SDS011;38531;53.296;6.614;2023-08-06T09:44:24;0.57;;;0.52;;
52642;SDS011;38531;53.296;6.614;2023-08-06T09:46:52;1.55;;;0.52;;
52642;SDS011;38531;53.296;6.614;2023-08-06T09:49:25;2.70;;;0.57;;
52642;SDS011;38531;53.296;6.614;2023-08-06T09:51:52;3.13;;;0.52;;
52642;SDS011;38531;53.296;6.614;2023-08-06T09:54:22;0.90;;;0.60;;
52642;SDS011;38531;53.296;6.614;2023-08-06T09:56:48;3.00;;;0.47;;
52642;SDS011;38531;53.296;6.614;2023-08-06T09:59:15;1.23;;;0.60;;
52642;SDS011;38531;53.296;6.614;2023-08-06T10:01:42;2.25;;;0.60;;
52642;SDS011;38531;53.296;6.614;2023-08-06T10:04:10;0.70;;;0.45;;
52642;SDS011;38531;53.296;6.614;2023-08-06T10:06:40;0.95;;;0.60;;
52642;SDS011;38531;53.296;6.614;2023-08-06T10:09:07;1.52;;;0.70;;
52642;SDS011;38531;53.296;6.614;2023-08-06T10:11:33;1.27;;;0.63;;
52642;SDS011;38531;53.296;6.614;2023-08-06T10:14:10;1.08;;;0.60;;
52642;SDS011;38531;53.296;6.614;2023-08-06T10:16:49;0.60;;;0.40;;
52642;SDS011;38531;53.296;6.614;2023-08-06T10:19:16;1.25;;;0.75;;
52642;SDS011;38531;53.296;6.614;2023-08-06T10:24:58;0.90;;;0.43;;
52642;SDS011;38531;53.296;6.614;2023-08-06T10:27:30;1.80;;;0.40;;
52642;SDS011;38531;53.296;6.614;2023-08-06T10:32:51;1.00;;;0.50;;
52642;SDS011;38531;53.296;6.614;2023-08-06T10:38:08;0.90;;;0.60;;
52642;SDS011;38531;53.296;6.614;2023-08-06T10:40:47;0.93;;;0.55;;
52642;SDS011;38531;53.296;6.614;2023-08-06T10:43:25;1.45;;;0.52;;
52642;SDS011;38531;53.296;6.614;2023-08-06T10:45:53;1.60;;;0.40;;
52642;SDS011;38531;53.296;6.614;2023-08-06T10:48:34;0.60;;;0.40;;
52642;SDS011;38531;53.296;6.614;2023-08-06T10:51:07;1.23;;;0.52;;
52642;SDS011;38531;53.296;6.614;2023-08-06T10:53:33;0.45;;;0.40;;
52642;SDS011;38531;53.296;6.614;2023-08-06T10:56:00;1.13;;;0.40;;
52642;SDS011;38531;53.296;6.614;2023-08-06T10:58:49;0.90;;;0.50;;
52642;SDS011;38531;53.296;6.614;2023-08-06T11:01:16;1.00;;;0.57;;
52642;SDS011;38531;53.296;6.614;2023-08-06T11:03:46;1.23;;;0.50;;
52642;SDS011;38531;53.296;6.614;2023-08-06T11:06:17;1.17;;;0.50;;
52642;SDS011;38531;53.296;6.614;2023-08-06T11:08:48;1.15;;;0.50;;
52642;SDS011;38531;53.296;6.614;2023-08-06T11:11:15;1.00;;;0.60;;
52642;SDS011;38531;53.296;6.614;2023-08-06T11:13:51;1.23;;;0.60;;
52642;SDS011;38531;53.296;6.614;2023-08-06T11:16:18;0.70;;;0.43;;
52642;SDS011;38531;53.296;6.614;2023-08-06T11:18:45;1.25;;;0.40;;
52642;SDS011;38531;53.296;6.614;2023-08-06T11:21:12;3.33;;;0.57;;
52642;SDS011;38531;53.296;6.614;2023-08-06T11:23:38;1.25;;;0.47;;
52642;SDS011;38531;53.296;6.614;2023-08-06T11:26:05;1.10;;;0.50;;
52642;SDS011;38531;53.296;6.614;2023-08-06T11:28:31;0.73;;;0.40;;
52642;SDS011;38531;53.296;6.614;2023-08-06T11:30:57;2.40;;;0.57;;
52642;SDS011;38531;53.296;6.614;2023-08-06T11:33:26;0.95;;;0.50;;
52642;SDS011;38531;53.296;6.614;2023-08-06T11:35:57;1.40;;;0.60;;
52642;SDS011;38531;53.296;6.614;2023-08-06T11:38:24;1.38;;;0.60;;
52642;SDS011;38531;53.296;6.614;2023-08-06T11:40:52;0.75;;;0.65;;
52642;SDS011;38531;53.296;6.614;2023-08-06T11:43:21;1.45;;;0.80;;
52642;SDS011;38531;53.296;6.614;2023-08-06T11:45:47;1.17;;;0.50;;
52642;SDS011;38531;53.296;6.614;2023-08-06T11:48:14;1.23;;;0.52;;
52642;SDS011;38531;53.296;6.614;2023-08-06T11:50:40;1.00;;;0.50;;
52642;SDS011;38531;53.296;6.614;2023-08-06T11:53:06;1.25;;;0.60;;
52642;SDS011;38531;53.296;6.614;2023-08-06T11:55:32;0.77;;;0.50;;
52642;SDS011;38531;53.296;6.614;2023-08-06T11:57:58;0.90;;;0.50;;
52642;SDS011;38531;53.296;6.614;2023-08-06T12:00:32;3.65;;;0.50;;
52642;SDS011;38531;53.296;6.614;2023-08-06T12:02:57;0.70;;;0.40;;
52642;SDS011;38531;53.296;6.614;2023-08-06T12:05:28;0.80;;;0.40;;
52642;SDS011;38531;53.296;6.614;2023-08-06T12:07:59;1.42;;;0.43;;
52642;SDS011;38531;53.296;6.614;2023-08-06T12:10:26;1.25;;;0.50;;
52642;SDS011;38531;53.296;6.614;2023-08-06T12:12:54;1.50;;;0.68;;
52642;SDS011;38531;53.296;6.614;2023-08-06T12:15:22;0.93;;;0.50;;
52642;SDS011;38531;53.296;6.614;2023-08-06T12:17:49;1.50;;;0.50;;
52642;SDS011;38531;53.296;6.614;2023-08-06T12:20:14;0.75;;;0.40;;
52642;SDS011;38531;53.296;6.614;2023-08-06T12:22:43;0.70;;;0.38;;
52642;SDS011;38531;53.296;6.614;2023-08-06T12:25:12;1.25;;;0.50;;
52642;SDS011;38531;53.296;6.614;2023-08-06T12:27:39;1.10;;;0.50;;
52642;SDS011;38531;53.296;6.614;2023-08-06T12:30:08;0.68;;;0.50;;
52642;SDS011;38531;53.296;6.614;2023-08-06T12:32:35;1.13;;;0.52;;
52642;SDS011;38531;53.296;6.614;2023-08-06T12:35:01;0.77;;;0.50;;
52642;SDS011;38531;53.296;6.614;2023-08-06T12:37:27;0.77;;;0.40;;
52642;SDS011;38531;53.296;6.614;2023-08-06T12:39:53;3.33;;;0.52;;
52642;SDS011;38531;53.296;6.614;2023-08-06T12:42:19;0.43;;;0.30;;
52642;SDS011;38531;53.296;6.614;2023-08-06T12:44:47;0.47;;;0.35;;
52642;SDS011;38531;53.296;6.614;2023-08-06T12:47:16;0.75;;;0.47;;
52642;SDS011;38531;53.296;6.614;2023-08-06T12:49:43;0.68;;;0.45;;
52642;SDS011;38531;53.296;6.614;2023-08-06T12:52:09;0.55;;;0.28;;
52642;SDS011;38531;53.296;6.614;2023-08-06T12:54:34;0.63;;;0.40;;
52642;SDS011;38531;53.296;6.614;2023-08-06T12:57:02;4.82;;;0.50;;
52642;SDS011;38531;53.296;6.614;2023-08-06T12:59:29;0.52;;;0.40;;
52642;SDS011;38531;53.296;6.614;2023-08-06T13:01:58;0.80;;;0.40;;
52642;SDS011;38531;53.296;6.614;2023-08-06T13:04:24;1.80;;;0.50;;
52642;SDS011;38531;53.296;6.614;2023-08-06T13:06:49;0.63;;;0.30;;
52642;SDS011;38531;53.296;6.614;2023-08-06T13:09:15;0.77;;;0.40;;
52642;SDS011;38531;53.296;6.614;2023-08-06T13:11:41;0.70;;;0.40;;
52642;SDS011;38531;53.296;6.614;2023-08-06T13:14:11;1.02;;;0.45;;
52642;SDS011;38531;53.296;6.614;2023-08-06T13:16:38;2.47;;;0.30;;
52642;SDS011;38531;53.296;6.614;2023-08-06T13:19:09;2.92;;;0.40;;
52642;SDS011;38531;53.296;6.614;2023-08-06T13:21:57;1.20;;;0.40;;
52642;SDS011;38531;53.296;6.614;2023-08-06T13:24:26;0.52;;;0.35;;
52642;SDS011;38531;53.296;6.614;2023-08-06T13:26:52;0.90;;;0.40;;
52642;SDS011;38531;53.296;6.614;2023-08-06T13:29:18;1.02;;;0.40;;
52642;SDS011;38531;53.296;6.614;2023-08-06T13:31:45;1.80;;;0.50;;
52642;SDS011;38531;53.296;6.614;2023-08-06T13:34:11;1.65;;;0.40;;
52642;SDS011;38531;53.296;6.614;2023-08-06T13:36:37;2.78;;;0.82;;
52642;SDS011;38531;53.296;6.614;2023-08-06T13:39:03;0.65;;;0.40;;
52642;SDS011;38531;53.296;6.614;2023-08-06T13:41:30;0.50;;;0.38;;
52642;SDS011;38531;53.296;6.614;2023-08-06T13:43:56;0.65;;;0.40;;
52642;SDS011;38531;53.296;6.614;2023-08-06T13:46:22;1.17;;;0.40;;
52642;SDS011;38531;53.296;6.614;2023-08-06T13:48:48;1.20;;;0.50;;
52642;SDS011;38531;53.296;6.614;2023-08-06T13:51:16;1.52;;;0.40;;
52642;SDS011;38531;53.296;6.614;2023-08-06T13:53:42;0.80;;;0.40;;
52642;SDS011;38531;53.296;6.614;2023-08-06T13:56:09;0.93;;;0.57;;
52642;SDS011;38531;53.296;6.614;2023-08-06T13:58:36;0.50;;;0.40;;
52642;SDS011;38531;53.296;6.614;2023-08-06T14:01:02;0.80;;;0.60;;
52642;SDS011;38531;53.296;6.614;2023-08-06T14:03:28;0.73;;;0.40;;
52642;SDS011;38531;53.296;6.614;2023-08-06T14:05:54;1.80;;;0.50;;
52642;SDS011;38531;53.296;6.614;2023-08-06T14:08:23;1.05;;;0.40;;
52642;SDS011;38531;53.296;6.614;2023-08-06T14:10:49;0.80;;;0.50;;
52642;SDS011;38531;53.296;6.614;2023-08-06T14:13:16;1.45;;;0.43;;
52642;SDS011;38531;53.296;6.614;2023-08-06T14:15:41;1.70;;;0.43;;
52642;SDS011;38531;53.296;6.614;2023-08-06T14:18:11;0.60;;;0.40;;
52642;SDS011;38531;53.296;6.614;2023-08-06T14:20:38;2.45;;;0.50;;
52642;SDS011;38531;53.296;6.614;2023-08-06T14:23:03;1.75;;;0.50;;
52642;SDS011;38531;53.296;6.614;2023-08-06T14:25:29;1.65;;;0.40;;
52642;SDS011;38531;53.296;6.614;2023-08-06T14:27:55;1.20;;;0.38;;
52642;SDS011;38531;53.296;6.614;2023-08-06T14:30:21;0.70;;;0.40;;
52642;SDS011;38531;53.296;6.614;2023-08-06T14:32:46;1.05;;;0.40;;
52642;SDS011;38531;53.296;6.614;2023-08-06T14:35:12;0.88;;;0.50;;
52642;SDS011;38531;53.296;6.614;2023-08-06T14:37:38;1.17;;;0.47;;
52642;SDS011;38531;53.296;6.614;2023-08-06T14:40:06;0.47;;;0.30;;
52642;SDS011;38531;53.296;6.614;2023-08-06T14:42:32;2.25;;;0.55;;
52642;SDS011;38531;53.296;6.614;2023-08-06T14:44:58;0.80;;;0.40;;
52642;SDS011;38531;53.296;6.614;2023-08-06T14:47:24;1.20;;;0.57;;
52642;SDS011;38531;53.296;6.614;2023-08-06T14:49:49;2.40;;;0.40;;
52642;SDS011;38531;53.296;6.614;2023-08-06T14:52:16;1.27;;;0.50;;
52642;SDS011;38531;53.296;6.614;2023-08-06T14:54:41;1.33;;;0.52;;
52642;SDS011;38531;53.296;6.614;2023-08-06T14:57:08;0.63;;;0.40;;
52642;SDS011;38531;53.296;6.614;2023-08-06T14:59:34;1.33;;;0.50;;
52642;SDS011;38531;53.296;6.614;2023-08-06T15:02:00;0.70;;;0.40;;
52642;SDS011;38531;53.296;6.614;2023-08-06T15:04:28;1.48;;;0.40;;
52642;SDS011;38531;53.296;6.614;2023-08-06T15:06:54;0.95;;;0.50;;
52642;SDS011;38531;53.296;6.614;2023-08-06T15:09:20;2.72;;;0.45;;
52642;SDS011;38531;53.296;6.614;2023-08-06T15:11:47;1.38;;;0.35;;
52642;SDS011;38531;53.296;6.614;2023-08-06T15:14:13;2.35;;;0.47;;
52642;SDS011;38531;53.296;6.614;2023-08-06T15:16:40;1.52;;;0.50;;
52642;SDS011;38531;53.296;6.614;2023-08-06T15:19:05;1.42;;;0.50;;
52642;SDS011;38531;53.296;6.614;2023-08-06T15:21:31;0.93;;;0.45;;
52642;SDS011;38531;53.296;6.614;2023-08-06T15:23:57;0.93;;;0.40;;
52642;SDS011;38531;53.296;6.614;2023-08-06T15:26:23;1.00;;;0.30;;